Time;durP1;ratioP1;P1;durP2;ratioP2;P2;SDS_P1;SDS_P2;PMS_P1;PMS_P2;Temp;Humidity;BMP_temperature;BMP_pressure;BME280_temperature;BME280_humidity;BME280_pressure;Samples;Min_cycle;Max_cycle;Signal;HPM_P1;HPM_P2
2022/05/07 00:00:48;;;;;;;3.00;0.60;;;17.10;99.90;;;;;;5094733;28;20190;-66
2022/05/07 00:03:16;;;;;;;2.20;0.50;;;17.00;99.90;;;;;;5094811;28;20168;-66
2022/05/07 00:05:44;;;;;;;1.43;0.60;;;16.90;99.90;;;;;;5094636;28;20172;-66
2022/05/07 00:08:12;;;;;;;0.93;0.70;;;16.50;99.90;;;;;;5094531;28;20301;-66
2022/05/07 00:10:42;;;;;;;1.60;0.67;;;16.60;99.90;;;;;;5095077;28;20189;-67
2022/05/07 00:13:10;;;;;;;0.70;0.50;;;17.00;99.90;;;;;;5095242;28;20513;-67
2022/05/07 00:15:37;;;;;;;1.90;0.60;;;16.70;99.90;;;;;;5094498;28;20176;-67
2022/05/07 00:18:06;;;;;;;4.50;0.47;;;16.70;99.90;;;;;;5093764;28;20254;-67
2022/05/07 00:20:35;;;;;;;1.30;0.80;;;16.90;99.90;;;;;;5094492;28;20179;-67
2022/05/07 00:23:03;;;;;;;0.93;0.73;;;17.20;99.90;;;;;;5093307;28;20180;-66
2022/05/07 00:25:32;;;;;;;1.17;0.63;;;17.70;99.90;;;;;;5094584;28;20237;-66
2022/05/07 00:27:59;;;;;;;0.90;0.70;;;17.90;99.90;;;;;;5095588;28;20187;-67
2022/05/07 00:30:27;;;;;;;0.83;0.53;;;18.20;99.90;;;;;;5095491;28;20673;-66
2022/05/07 00:32:55;;;;;;;2.37;0.77;;;18.10;99.90;;;;;;5095376;28;20242;-66
2022/05/07 00:35:22;;;;;;;3.43;0.70;;;18.20;99.90;;;;;;5095248;28;20175;-67
2022/05/07 00:37:50;;;;;;;1.30;0.70;;;18.60;99.90;;;;;;5095375;28;20539;-66
2022/05/07 00:40:18;;;;;;;1.27;0.80;;;17.90;99.90;;;;;;5095384;28;20224;-66
2022/05/07 00:42:45;;;;;;;1.57;0.50;;;17.60;99.90;;;;;;5095276;28;20167;-66
2022/05/07 00:45:13;;;;;;;5.03;0.63;;;18.10;99.90;;;;;;5095282;28;20172;-67
2022/05/07 00:47:41;;;;;;;0.57;0.47;;;18.30;99.90;;;;;;5095323;28;20223;-68
2022/05/07 00:52:55;;;;;;;1.80;0.63;;;19.30;99.90;;;;;;5095404;28;20190;-68
2022/05/07 00:55:25;;;;;;;1.57;0.60;;;19.70;99.90;;;;;;5094949;28;20222;-68
2022/05/07 00:57:55;;;;;;;0.63;0.40;;;20.00;99.90;;;;;;5094963;28;20597;-67
2022/05/07 01:00:23;;;;;;;4.30;0.53;;;19.60;99.90;;;;;;5094914;28;20172;-67
2022/05/07 01:02:51;;;;;;;1.13;0.40;;;19.60;99.90;;;;;;5094627;28;20203;-67
2022/05/07 01:05:19;;;;;;;1.50;0.53;;;19.30;99.90;;;;;;5094731;28;20545;-68
2022/05/07 01:07:46;;;;;;;0.50;0.40;;;19.70;99.90;;;;;;5094663;28;20187;-67
2022/05/07 01:10:14;;;;;;;0.90;0.50;;;20.00;99.90;;;;;;5094701;28;20224;-68
2022/05/07 01:12:42;;;;;;;1.77;0.60;;;20.20;99.90;;;;;;5094817;28;20556;-69
2022/05/07 01:15:10;;;;;;;1.07;0.43;;;20.40;99.90;;;;;;5093389;28;20270;-66
2022/05/07 01:17:38;;;;;;;0.80;0.40;;;20.40;99.90;;;;;;5094527;28;20210;-66
2022/05/07 01:20:09;;;;;;;2.80;0.47;;;19.40;99.90;;;;;;5094632;28;20584;-66
2022/05/07 01:22:37;;;;;;;3.00;0.50;;;19.20;99.90;;;;;;5094411;28;20199;-66
2022/05/07 01:25:05;;;;;;;1.60;0.50;;;19.60;99.90;;;;;;5094555;28;20320;-66
2022/05/07 01:27:33;;;;;;;3.80;0.80;;;20.20;99.90;;;;;;5093889;28;20257;-67
2022/05/07 01:30:01;;;;;;;1.80;1.03;;;20.80;99.90;;;;;;5094278;28;20211;-67
2022/05/07 01:32:28;;;;;;;4.87;0.80;;;21.20;99.90;;;;;;5094251;28;20171;-67
2022/05/07 01:34:56;;;;;;;1.00;0.60;;;21.00;99.90;;;;;;5094392;28;20680;-66
2022/05/07 01:37:25;;;;;;;3.87;0.73;;;20.70;99.90;;;;;;5094383;28;20176;-66
2022/05/07 01:39:53;;;;;;;3.30;0.43;;;20.60;99.90;;;;;;5094172;28;20183;-67
2022/05/07 01:42:20;;;;;;;1.03;0.60;;;20.30;99.90;;;;;;5094169;28;20220;-66
2022/05/07 01:44:47;;;;;;;0.83;0.40;;;20.30;99.90;;;;;;5092903;28;20278;-66
2022/05/07 01:50:00;;;;;;;1.43;0.47;;;21.00;99.90;;;;;;5093978;28;20221;-66
2022/05/07 01:52:27;;;;;;;1.30;0.70;;;20.90;99.90;;;;;;5094064;28;20175;-67
2022/05/07 01:54:54;;;;;;;1.13;0.40;;;21.50;99.90;;;;;;5093826;28;20218;-67
2022/05/07 01:57:22;;;;;;;1.20;0.33;;;21.80;99.90;;;;;;5093809;28;20589;-67
2022/05/07 01:59:49;;;;;;;1.23;0.50;;;21.60;99.90;;;;;;5093958;28;20287;-67
2022/05/07 02:02:16;;;;;;;1.60;0.60;;;21.50;99.90;;;;;;5093805;28;20696;-67
2022/05/07 02:04:44;;;;;;;1.00;0.57;;;21.10;99.90;;;;;;5093870;28;20178;-67
2022/05/07 02:07:11;;;;;;;2.33;0.57;;;21.40;99.90;;;;;;5093576;28;20173;-67
2022/05/07 02:09:39;;;;;;;3.60;0.70;;;22.10;99.90;;;;;;5093492;28;20221;-67
2022/05/07 02:12:06;;;;;;;0.50;0.40;;;22.30;99.90;;;;;;5093711;28;20204;-67
2022/05/07 02:14:35;;;;;;;1.53;0.50;;;21.60;99.90;;;;;;5093490;28;20265;-67
2022/05/07 02:17:02;;;;;;;1.63;0.60;;;21.30;99.90;;;;;;5093969;28;20180;-67
2022/05/07 02:19:29;;;;;;;0.77;0.43;;;21.60;99.90;;;;;;5093393;28;20270;-68
2022/05/07 02:21:56;;;;;;;1.63;0.43;;;22.00;99.90;;;;;;5093472;28;20177;-68
2022/05/07 02:24:24;;;;;;;2.17;0.30;;;22.00;99.90;;;;;;5093613;28;20181;-68
2022/05/07 02:26:51;;;;;;;2.17;0.60;;;21.80;99.40;;;;;;5093659;28;20644;-68
2022/05/07 02:29:20;;;;;;;0.93;0.37;;;22.00;99.90;;;;;;5093282;28;20206;-68
2022/05/07 02:32:06;;;;;;;0.40;0.40;;;21.50;99.90;;;;;;5093598;28;20174;-68
2022/05/07 02:34:35;;;;;;;0.37;0.37;;;21.30;99.90;;;;;;5093296;28;20204;-67
2022/05/07 02:37:04;;;;;;;1.83;0.40;;;21.70;99.90;;;;;;5093285;28;20258;-68
2022/05/07 02:39:32;;;;;;;2.60;0.57;;;21.60;98.50;;;;;;5092622;28;20643;-68
2022/05/07 02:44:45;;;;;;;2.50;0.60;;;21.70;99.90;;;;;;5093507;28;20236;-68
2022/05/07 02:47:13;;;;;;;2.00;0.50;;;21.50;99.90;;;;;;5093339;28;20705;-69
2022/05/07 02:49:40;;;;;;;0.83;0.40;;;21.70;98.60;;;;;;5093237;28;20211;-68
2022/05/07 02:52:07;;;;;;;1.47;0.57;;;21.90;97.10;;;;;;5092068;28;20757;-68
2022/05/07 02:54:35;;;;;;;0.70;0.60;;;22.60;98.90;;;;;;5092890;28;20175;-68
2022/05/07 02:57:02;;;;;;;0.60;0.33;;;22.80;96.50;;;;;;5093168;28;20171;-67
2022/05/07 02:59:29;;;;;;;2.50;0.43;;;23.20;92.80;;;;;;5093091;28;20312;-67
2022/05/07 03:01:57;;;;;;;0.33;0.30;;;22.90;93.90;;;;;;5093182;28;20660;-67
2022/05/07 03:04:24;;;;;;;0.37;0.37;;;22.40;91.50;;;;;;5093137;28;20262;-67
2022/05/07 03:06:51;;;;;;;0.80;0.33;;;22.30;88.60;;;;;;5093159;28;20172;-67
2022/05/07 03:09:19;;;;;;;0.50;0.33;;;22.80;90.60;;;;;;5092867;28;20210;-67
2022/05/07 03:11:46;;;;;;;1.13;0.37;;;22.70;91.90;;;;;;5093040;28;20171;-67
2022/05/07 03:14:13;;;;;;;0.70;0.30;;;23.10;89.30;;;;;;5092926;28;20233;-67
2022/05/07 03:16:41;;;;;;;0.67;0.30;;;22.30;89.40;;;;;;5093073;28;20181;-67
2022/05/07 03:19:09;;;;;;;1.80;0.33;;;21.70;91.30;;;;;;5092796;28;20170;-68
2022/05/07 03:21:36;;;;;;;0.30;0.30;;;21.50;90.90;;;;;;5092863;28;20702;-68
2022/05/07 03:24:04;;;;;;;1.23;0.47;;;21.10;91.80;;;;;;5093072;28;20207;-68
2022/05/07 03:26:31;;;;;;;1.53;0.40;;;21.60;93.00;;;;;;5092760;28;20197;-68
2022/05/07 03:28:59;;;;;;;0.60;0.30;;;21.80;93.90;;;;;;5092807;28;20215;-68
2022/05/07 03:31:27;;;;;;;1.87;0.40;;;21.60;91.70;;;;;;5092823;28;20182;-67
2022/05/07 03:33:54;;;;;;;0.63;0.33;;;21.70;91.20;;;;;;5093252;28;20182;-68
2022/05/07 03:36:21;;;;;;;0.33;0.20;;;22.10;87.00;;;;;;5092898;28;20240;-69
2022/05/07 03:38:49;;;;;;;0.40;0.30;;;22.30;89.10;;;;;;5092664;28;20543;-66
2022/05/07 03:41:16;;;;;;;0.67;0.30;;;22.40;87.30;;;;;;5092577;28;20254;-66
2022/05/07 03:43:43;;;;;;;0.83;0.47;;;22.10;85.50;;;;;;5092798;28;20167;-67
2022/05/07 03:46:11;;;;;;;1.53;0.40;;;22.60;86.30;;;;;;5092679;28;20180;-67
2022/05/07 03:48:38;;;;;;;0.63;0.37;;;23.40;88.00;;;;;;5092429;28;20211;-67
2022/05/07 03:51:05;;;;;;;0.20;0.20;;;23.20;81.60;;;;;;5093832;28;20178;-68
2022/05/07 03:53:33;;;;;;;1.03;0.40;;;22.40;81.20;;;;;;5096460;28;20218;-68
2022/05/07 03:56:01;;;;;;;0.50;0.30;;;22.30;80.40;;;;;;5096187;28;20219;-68
2022/05/07 03:58:29;;;;;;;0.53;0.30;;;23.00;81.60;;;;;;5096284;28;20186;-67
2022/05/07 04:00:57;;;;;;;0.30;0.30;;;23.00;78.60;;;;;;5096088;28;20199;-68
2022/05/07 04:03:26;;;;;;;0.40;0.30;;;22.80;78.30;;;;;;5095917;28;20554;-68
2022/05/07 04:05:54;;;;;;;1.40;0.20;;;22.50;81.40;;;;;;5096047;28;20182;-68
2022/05/07 04:08:23;;;;;;;0.33;0.20;;;22.50;81.20;;;;;;5095968;28;20617;-68
2022/05/07 04:10:51;;;;;;;2.13;0.50;;;23.30;80.80;;;;;;5095799;28;20191;-68
2022/05/07 04:13:19;;;;;;;1.17;0.40;;;23.80;77.90;;;;;;5096120;28;20214;-67
2022/05/07 04:15:46;;;;;;;0.43;0.30;;;23.50;78.70;;;;;;5095707;28;20203;-67
2022/05/07 04:18:13;;;;;;;0.50;0.30;;;22.90;77.10;;;;;;5095857;28;20190;-66
2022/05/07 04:20:41;;;;;;;1.90;0.50;;;21.60;75.90;;;;;;5095785;28;20197;-66
2022/05/07 04:23:08;;;;;;;1.20;0.30;;;21.60;82.50;;;;;;5095725;28;20179;-68
2022/05/07 04:25:37;;;;;;;0.97;0.50;;;22.00;79.30;;;;;;5095687;28;20176;-67
2022/05/07 04:28:04;;;;;;;2.70;0.73;;;22.30;77.10;;;;;;5094366;28;20221;-69
2022/05/07 04:30:31;;;;;;;0.43;0.43;;;22.20;75.10;;;;;;5095681;28;20601;-68
2022/05/07 04:32:59;;;;;;;0.27;0.20;;;22.10;75.50;;;;;;5095559;28;20175;-68
2022/05/07 04:35:26;;;;;;;0.67;0.40;;;22.40;71.10;;;;;;5095632;28;20539;-67
2022/05/07 04:37:53;;;;;;;0.77;0.40;;;22.40;72.70;;;;;;5094817;28;20182;-68
2022/05/07 04:40:21;;;;;;;0.70;0.30;;;22.40;73.00;;;;;;5092421;28;20183;-68
2022/05/07 04:42:48;;;;;;;0.30;0.30;;;22.20;70.60;;;;;;5094097;28;20179;-69
2022/05/07 04:45:15;;;;;;;0.60;0.40;;;21.50;69.90;;;;;;5093179;28;20535;-68
2022/05/07 04:47:43;;;;;;;0.20;0.20;;;21.60;70.00;;;;;;5093272;28;20229;-67
2022/05/07 04:50:12;;;;;;;0.27;0.27;;;21.80;68.80;;;;;;5091326;28;21713;-67
2022/05/07 04:52:40;;;;;;;0.67;0.40;;;21.90;70.60;;;;;;5093734;28;20660;-67
2022/05/07 04:55:07;;;;;;;0.80;0.40;;;22.00;70.30;;;;;;5093541;28;20287;-66
2022/05/07 04:57:36;;;;;;;2.37;0.50;;;21.60;72.20;;;;;;5093681;28;20175;-66
2022/05/07 05:00:05;;;;;;;2.63;0.40;;;21.50;69.70;;;;;;5093764;28;20167;-66
2022/05/07 05:02:33;;;;;;;1.97;0.40;;;21.30;69.00;;;;;;5092721;28;20637;-66
2022/05/07 05:05:00;;;;;;;0.90;0.40;;;21.20;68.80;;;;;;5093791;28;20209;-67
2022/05/07 05:07:27;;;;;;;1.40;0.40;;;21.40;71.00;;;;;;5093537;28;20645;-67
2022/05/07 05:09:55;;;;;;;0.40;0.40;;;21.10;70.40;;;;;;5092926;28;20279;-67
2022/05/07 05:12:22;;;;;;;1.07;0.57;;;21.20;73.90;;;;;;5092170;28;20268;-67
2022/05/07 05:15:03;;;;;;;0.37;0.37;;;21.10;72.90;;;;;;5092819;28;20706;-67
2022/05/07 05:17:32;;;;;;;0.57;0.30;;;21.10;73.60;;;;;;5092867;28;20183;-68
2022/05/07 05:20:00;;;;;;;1.80;0.30;;;21.10;74.90;;;;;;5092791;28;20580;-67
2022/05/07 05:22:28;;;;;;;1.00;0.40;;;20.70;75.20;;;;;;5093078;28;20175;-67
2022/05/07 05:24:56;;;;;;;1.27;0.50;;;20.50;75.50;;;;;;5091977;28;20189;-67
2022/05/07 05:27:23;;;;;;;0.30;0.30;;;20.50;75.40;;;;;;5093138;28;20205;-67
2022/05/07 05:29:51;;;;;;;1.20;0.47;;;20.40;75.60;;;;;;5092437;28;20207;-67
2022/05/07 05:32:18;;;;;;;3.07;0.40;;;20.60;77.40;;;;;;5091382;28;20536;-67
2022/05/07 05:34:53;;;;;;;5.43;0.43;;;20.60;76.20;;;;;;5092830;28;20187;-67
2022/05/07 05:37:20;;;;;;;2.60;0.60;;;20.60;78.20;;;;;;5090513;28;20182;-67
2022/05/07 05:39:48;;;;;;;1.20;0.50;;;20.40;80.70;;;;;;5091130;28;20552;-66
2022/05/07 05:42:15;;;;;;;0.60;0.40;;;20.40;78.80;;;;;;5075571;28;20182;-66
2022/05/07 05:44:43;;;;;;;2.17;0.50;;;20.50;79.80;;;;;;5092919;28;20189;-67
2022/05/07 05:47:10;;;;;;;0.70;0.43;;;20.40;79.40;;;;;;5092229;28;20596;-66
2022/05/07 05:49:38;;;;;;;0.73;0.50;;;19.70;80.00;;;;;;5092113;28;20293;-67
2022/05/07 05:52:09;;;;;;;2.93;0.50;;;19.60;84.90;;;;;;5092907;28;20199;-66
2022/05/07 05:54:36;;;;;;;2.67;0.50;;;19.30;84.20;;;;;;5092557;28;20187;-67
2022/05/07 05:57:04;;;;;;;2.30;0.40;;;19.20;87.80;;;;;;5091379;28;20275;-66
2022/05/07 05:59:31;;;;;;;0.93;0.57;;;19.30;88.00;;;;;;5091870;28;20276;-65
2022/05/07 06:01:59;;;;;;;0.60;0.50;;;19.30;89.20;;;;;;5092085;28;20194;-67
2022/05/07 06:04:27;;;;;;;1.50;0.60;;;19.00;88.10;;;;;;5092454;28;20189;-67
2022/05/07 06:06:54;;;;;;;0.53;0.53;;;18.90;90.90;;;;;;5092404;28;20186;-66
2022/05/07 06:09:23;;;;;;;1.60;0.90;;;18.70;93.00;;;;;;5091799;28;20222;-66
2022/05/07 06:11:51;;;;;;;1.03;0.40;;;18.70;93.50;;;;;;5092149;28;20480;-67
2022/05/07 06:14:18;;;;;;;2.57;0.40;;;18.50;94.60;;;;;;5091094;28;20266;-66
2022/05/07 06:16:46;;;;;;;4.83;0.70;;;18.30;97.10;;;;;;5091991;28;20183;-67
2022/05/07 06:19:13;;;;;;;2.87;1.00;;;18.20;99.20;;;;;;5091923;28;20521;-66
2022/05/07 06:21:40;;;;;;;4.23;1.30;;;18.10;99.90;;;;;;5091876;28;20183;-66
2022/05/07 06:29:38;;;;;;;2.60;1.33;;;17.90;99.90;;;;;;5091827;28;20233;-67
2022/05/07 06:32:05;;;;;;;1.80;0.70;;;17.80;99.90;;;;;;5091697;28;20532;-67
2022/05/07 06:34:32;;;;;;;1.13;0.70;;;17.80;99.90;;;;;;5092051;28;20188;-67
2022/05/07 06:37:01;;;;;;;1.17;0.70;;;17.70;99.90;;;;;;5091703;28;20550;-67
2022/05/07 06:39:28;;;;;;;1.60;0.60;;;17.60;99.90;;;;;;5091666;28;20179;-67
2022/05/07 06:41:55;;;;;;;10.83;1.73;;;17.50;99.90;;;;;;5091455;28;20179;-67
2022/05/07 06:44:23;;;;;;;2.63;0.70;;;17.50;99.90;;;;;;5091753;28;20967;-66
2022/05/07 06:46:51;;;;;;;1.00;0.60;;;17.40;99.90;;;;;;5091762;28;20285;-66
2022/05/07 06:49:19;;;;;;;1.43;0.73;;;17.30;99.90;;;;;;5090529;28;20309;-67
2022/05/07 06:51:46;;;;;;;0.70;0.60;;;17.20;99.90;;;;;;5091206;28;20179;-66
2022/05/07 06:54:13;;;;;;;1.53;0.60;;;17.10;99.90;;;;;;5091255;28;20190;-67
2022/05/07 06:56:41;;;;;;;1.83;0.90;;;17.00;99.90;;;;;;5091313;28;20645;-66
2022/05/07 06:59:10;;;;;;;1.67;0.90;;;16.90;99.90;;;;;;5091941;28;20175;-67
2022/05/07 07:01:37;;;;;;;0.80;0.70;;;16.80;99.90;;;;;;5091492;28;20269;-68
2022/05/07 07:04:05;;;;;;;0.77;0.63;;;16.60;99.90;;;;;;5091418;28;20186;-67
2022/05/07 07:06:32;;;;;;;2.20;0.70;;;16.50;99.90;;;;;;5091713;28;20175;-67
2022/05/07 07:09:00;;;;;;;3.63;0.90;;;16.50;99.90;;;;;;5091754;28;20206;-67
2022/05/07 07:11:27;;;;;;;1.67;0.50;;;16.30;99.90;;;;;;5091795;28;20183;-67
2022/05/07 07:13:55;;;;;;;0.87;0.50;;;16.20;99.90;;;;;;5091630;28;20186;-67
2022/05/07 07:16:22;;;;;;;4.33;0.60;;;16.20;99.90;;;;;;5091340;28;20203;-66
2022/05/07 07:18:49;;;;;;;1.50;0.87;;;16.10;99.90;;;;;;5091519;28;20189;-67
2022/05/07 07:21:17;;;;;;;0.57;0.57;;;16.10;99.90;;;;;;5091216;28;20636;-67
2022/05/07 07:23:44;;;;;;;1.63;0.80;;;16.00;99.90;;;;;;5091572;28;20296;-68
2022/05/07 07:26:12;;;;;;;1.73;0.90;;;15.90;99.90;;;;;;5093292;28;20182;-67
2022/05/07 07:28:39;;;;;;;1.70;0.80;;;15.80;99.90;;;;;;5095380;28;20214;-67
2022/05/07 07:31:08;;;;;;;0.83;0.70;;;15.70;99.90;;;;;;5094158;28;20183;-67
2022/05/07 07:33:38;;;;;;;0.87;0.50;;;15.60;99.90;;;;;;5095275;28;20572;-67
2022/05/07 07:36:07;;;;;;;1.60;0.50;;;15.50;99.90;;;;;;5095436;28;20181;-67
2022/05/07 07:38:35;;;;;;;1.13;0.70;;;15.40;99.90;;;;;;5095401;28;20549;-66
2022/05/07 07:41:03;;;;;;;2.80;0.90;;;15.30;99.90;;;;;;5095223;28;20281;-66
2022/05/07 07:43:35;;;;;;;1.80;0.70;;;15.30;99.90;;;;;;5095050;28;20175;-67
2022/05/07 07:48:48;;;;;;;1.80;1.20;;;14.90;99.90;;;;;;5095215;28;20217;-67
2022/05/07 07:51:15;;;;;;;2.77;1.00;;;14.80;99.90;;;;;;5095046;28;20171;-66
2022/05/07 07:53:44;;;;;;;1.97;1.10;;;14.60;99.90;;;;;;5095045;28;20181;-67
2022/05/07 07:56:12;;;;;;;1.20;0.80;;;14.50;99.90;;;;;;5094758;28;20223;-66
2022/05/07 07:58:39;;;;;;;1.17;0.67;;;14.50;99.90;;;;;;5094587;28;20189;-67
2022/05/07 08:01:06;;;;;;;0.77;0.50;;;14.40;99.90;;;;;;5094858;28;20678;-67
2022/05/07 08:03:34;;;;;;;2.00;0.90;;;14.40;99.90;;;;;;5093384;28;20186;-66
2022/05/07 08:06:01;;;;;;;1.20;0.63;;;14.40;99.90;;;;;;5094974;28;20663;-67
2022/05/07 08:11:46;;;;;;;2.00;0.70;;;14.40;99.90;;;;;;5026277;28;20250;-65
2022/05/07 08:14:14;;;;;;;1.77;0.77;;;14.30;99.90;;;;;;5024900;28;20192;-67
2022/05/07 08:16:43;;;;;;;1.83;0.90;;;14.30;99.90;;;;;;5056485;28;20690;-67
2022/05/07 08:19:12;;;;;;;2.73;0.90;;;14.30;99.90;;;;;;5074393;28;20187;-65
2022/05/07 08:21:39;;;;;;;2.03;0.93;;;14.20;99.90;;;;;;5074330;28;20273;-65
2022/05/07 08:24:07;;;;;;;4.33;0.83;;;14.20;99.90;;;;;;5084960;28;20198;-65
2022/05/07 08:26:34;;;;;;;1.70;1.20;;;14.20;99.90;;;;;;5094508;28;20270;-66
2022/05/07 08:29:02;;;;;;;2.60;0.90;;;14.10;99.90;;;;;;5094122;28;20253;-65
2022/05/07 08:31:29;;;;;;;8.03;1.23;;;14.30;99.90;;;;;;5094538;28;20266;-66
2022/05/07 08:33:56;;;;;;;1.60;0.90;;;14.20;99.90;;;;;;5094315;28;20217;-67
2022/05/07 08:36:24;;;;;;;3.33;1.20;;;14.10;99.90;;;;;;5094246;28;20186;-67
2022/05/07 08:38:51;;;;;;;1.13;0.87;;;14.20;99.90;;;;;;5093087;28;20186;-67
2022/05/07 08:41:18;;;;;;;3.27;1.20;;;14.20;99.90;;;;;;5094100;28;20629;-68
2022/05/07 08:43:46;;;;;;;3.00;1.20;;;14.10;99.90;;;;;;5094054;28;20182;-66
2022/05/07 08:46:16;;;;;;;4.80;1.00;;;14.00;99.90;;;;;;5094248;28;20596;-67
2022/05/07 08:48:47;;;;;;;3.53;1.60;;;13.90;99.90;;;;;;5094044;28;20583;-68
2022/05/07 08:51:21;;;;;;;4.63;1.63;;;13.80;99.90;;;;;;5093892;28;20308;-68
2022/05/07 08:53:53;;;;;;;5.60;1.57;;;13.90;99.90;;;;;;5093904;28;20644;-67
2022/05/07 08:56:22;;;;;;;2.97;1.57;;;14.00;99.90;;;;;;5094003;28;20272;-70
2022/05/07 08:58:54;;;;;;;3.17;1.80;;;13.90;99.90;;;;;;5093858;28;20555;-68
2022/05/07 09:01:23;;;;;;;1.87;1.30;;;13.90;99.90;;;;;;5092381;28;20191;-67
2022/05/07 09:03:51;;;;;;;3.00;1.37;;;13.70;99.90;;;;;;5093532;28;20200;-67
2022/05/07 09:06:23;;;;;;;3.37;1.70;;;13.50;99.90;;;;;;5093342;28;20189;-67
2022/05/07 09:08:52;;;;;;;2.00;1.43;;;13.30;99.90;;;;;;5093708;28;20203;-67
2022/05/07 09:11:21;;;;;;;6.20;1.50;;;13.20;99.90;;;;;;5093506;28;20196;-67
2022/05/07 09:13:59;;;;;;;7.07;1.50;;;13.00;99.90;;;;;;5093324;28;20193;-67
2022/05/07 09:16:45;;;;;;;2.83;1.43;;;13.10;99.90;;;;;;5092487;28;20188;-67
2022/05/07 09:19:23;;;;;;;2.07;1.30;;;13.10;99.90;;;;;;5093500;28;20179;-66
2022/05/07 09:21:54;;;;;;;7.30;1.90;;;13.10;99.90;;;;;;5093414;28;20601;-67
2022/05/07 09:24:22;;;;;;;5.83;1.50;;;13.00;99.90;;;;;;5091799;28;20186;-67
2022/05/07 09:26:49;;;;;;;5.77;1.73;;;12.90;99.90;;;;;;5092993;28;20185;-67
2022/05/07 09:29:18;;;;;;;4.50;1.83;;;12.80;99.90;;;;;;5089958;28;20209;-67
2022/05/07 09:31:46;;;;;;;2.17;1.30;;;12.70;99.90;;;;;;5092391;28;20238;-67
2022/05/07 09:37:21;;;;;;;1.93;1.40;;;12.50;99.90;;;;;;5093188;28;20188;-68
2022/05/07 09:39:52;;;;;;;5.33;1.80;;;12.50;99.90;;;;;;5093159;28;20260;-68
2022/05/07 09:42:24;;;;;;;3.03;1.40;;;12.60;99.90;;;;;;5092817;28;20635;-67
2022/05/07 09:44:52;;;;;;;6.40;1.60;;;12.50;99.90;;;;;;5093056;28;20217;-68
2022/05/07 09:47:19;;;;;;;3.00;1.33;;;12.40;99.90;;;;;;5093070;28;20176;-68
2022/05/07 09:52:33;;;;;;;5.37;1.87;;;12.30;99.90;;;;;;5092741;28;20189;-68
2022/05/07 09:57:46;;;;;;;3.70;2.57;;;12.70;99.90;;;;;;5092673;28;20271;-66
2022/05/07 10:00:17;;;;;;;3.80;2.20;;;12.80;99.90;;;;;;5092851;28;20210;-68
2022/05/07 10:03:18;;;;;;;6.87;3.13;;;12.90;99.90;;;;;;5092827;28;20182;-67
2022/05/07 10:06:39;;;;;;;3.33;1.90;;;13.00;99.90;;;;;;5094026;28;20184;-68
2022/05/07 10:09:44;;;;;;;2.63;1.90;;;13.10;99.90;;;;;;5049676;28;20302;-67
2022/05/07 10:12:18;;;;;;;3.47;1.80;;;13.10;99.90;;;;;;5013589;28;20210;-66
2022/05/07 10:14:46;;;;;;;3.90;2.00;;;13.00;99.90;;;;;;5101553;28;20544;-68
2022/05/07 10:17:15;;;;;;;3.47;2.10;;;12.80;99.90;;;;;;5100263;28;20180;-65
2022/05/07 10:19:46;;;;;;;4.60;2.30;;;12.70;99.90;;;;;;5091786;28;20172;-66
2022/05/07 10:22:24;;;;;;;6.47;2.13;;;12.50;99.90;;;;;;5092372;28;20637;-66
2022/05/07 10:25:09;;;;;;;5.37;2.10;;;12.40;99.90;;;;;;5092704;28;20518;-66
2022/05/07 10:27:41;;;;;;;6.90;2.10;;;12.30;99.90;;;;;;5094495;28;20185;-66
2022/05/07 10:30:10;;;;;;;4.43;2.10;;;12.30;99.90;;;;;;5092240;28;20319;-67
2022/05/07 10:33:03;;;;;;;3.47;1.67;;;12.20;99.90;;;;;;5092386;28;20177;-67
2022/05/07 10:35:52;;;;;;;3.17;1.83;;;12.20;99.90;;;;;;5074780;28;20193;-66
2022/05/07 10:38:31;;;;;;;3.53;1.90;;;12.10;99.90;;;;;;5092238;28;20176;-66
2022/05/07 10:41:01;;;;;;;6.37;2.17;;;12.00;99.90;;;;;;5092335;28;20175;-66
2022/05/07 10:43:36;;;;;;;3.83;1.70;;;12.00;99.90;;;;;;5091703;28;20242;-66
2022/05/07 10:46:12;;;;;;;6.10;2.27;;;11.90;99.90;;;;;;5092110;28;20267;-65
2022/05/07 10:48:56;;;;;;;3.67;2.57;;;12.00;99.90;;;;;;5090722;28;20741;-67
2022/05/07 10:51:58;;;;;;;8.30;3.10;;;11.90;99.90;;;;;;5091989;28;20184;-67
2022/05/07 10:54:26;;;;;;;5.30;2.93;;;12.00;99.90;;;;;;5091484;28;20727;-66
2022/05/07 10:56:56;;;;;;;6.83;2.50;;;11.90;99.90;;;;;;5092099;28;20257;-67
2022/05/07 10:59:26;;;;;;;5.23;2.83;;;11.80;99.90;;;;;;5092026;28;20659;-67
2022/05/07 11:02:10;;;;;;;4.90;2.43;;;11.80;99.90;;;;;;5094984;28;20178;-68
2022/05/07 11:04:46;;;;;;;8.47;3.67;;;11.80;99.90;;;;;;5096103;28;20186;-67
2022/05/07 11:07:20;;;;;;;4.90;3.50;;;11.70;99.90;;;;;;5096134;28;20181;-66
2022/05/07 11:09:51;;;;;;;4.43;2.80;;;11.50;99.90;;;;;;5096147;28;20210;-67
2022/05/07 11:12:21;;;;;;;4.27;2.93;;;11.40;99.90;;;;;;5095876;28;20181;-66
2022/05/07 11:14:48;;;;;;;4.93;3.20;;;11.30;99.90;;;;;;5094576;28;20261;-65
2022/05/07 11:17:20;;;;;;;5.10;2.60;;;11.30;99.90;;;;;;5095390;28;20608;-67
2022/05/07 11:19:47;;;;;;;4.20;2.53;;;11.30;99.90;;;;;;5095949;28;20180;-67
2022/05/07 11:22:15;;;;;;;6.30;2.50;;;11.40;99.90;;;;;;5095820;28;20260;-66
2022/05/07 11:24:43;;;;;;;5.67;2.57;;;11.50;99.90;;;;;;5095405;28;20186;-67
2022/05/07 11:27:11;;;;;;;3.13;2.30;;;11.50;99.90;;;;;;5095611;28;20184;-66
2022/05/07 11:29:39;;;;;;;4.23;2.03;;;11.40;99.90;;;;;;5095443;28;20687;-67
2022/05/07 11:32:11;;;;;;;6.37;2.30;;;11.30;99.90;;;;;;5095744;28;20374;-66
2022/05/07 11:34:45;;;;;;;5.10;2.47;;;11.20;99.90;;;;;;5095371;28;20180;-66
2022/05/07 11:37:23;;;;;;;4.73;2.30;;;11.00;99.90;;;;;;5095522;28;20180;-66
2022/05/07 11:39:58;;;;;;;4.27;2.43;;;10.80;99.90;;;;;;5095185;28;20723;-66
2022/05/07 11:42:33;;;;;;;4.60;2.37;;;10.60;99.90;;;;;;5094322;28;20263;-67
2022/05/07 11:47:59;;;;;;;5.03;2.60;;;10.40;99.90;;;;;;5095677;28;20290;-66
2022/05/07 11:50:41;;;;;;;3.57;2.50;;;10.30;99.90;;;;;;5095279;28;20216;-67
2022/05/07 11:53:13;;;;;;;4.17;2.73;;;10.30;99.90;;;;;;5093800;28;20653;-66
2022/05/07 11:55:42;;;;;;;6.10;2.87;;;10.30;99.90;;;;;;5095054;28;20229;-66
2022/05/07 11:58:23;;;;;;;4.50;3.13;;;10.30;99.90;;;;;;5095141;28;20175;-66
2022/05/07 12:00:54;;;;;;;5.60;3.27;;;10.20;99.90;;;;;;5095238;28;20650;-67
2022/05/07 12:03:25;;;;;;;5.57;3.10;;;10.10;99.90;;;;;;5094521;28;20753;-67
2022/05/07 12:05:55;;;;;;;6.97;4.00;;;10.00;99.90;;;;;;5095090;28;20218;-67
2022/05/07 12:08:33;;;;;;;6.30;4.20;;;10.10;99.90;;;;;;5094652;28;20188;-67
2022/05/07 12:11:02;;;;;;;6.87;3.97;;;10.10;99.90;;;;;;5093116;28;20275;-67
2022/05/07 12:13:30;;;;;;;7.33;4.03;;;10.00;99.90;;;;;;5094053;28;20259;-66
2022/05/07 12:18:49;;;;;;;6.13;3.87;;;10.00;99.90;;;;;;5094966;28;20597;-66
2022/05/07 12:21:16;;;;;;;8.73;4.67;;;9.80;99.90;;;;;;5094455;28;20185;-67
2022/05/07 12:31:50;;;;;;;9.00;3.93;;;9.60;99.90;;;;;;5095909;28;20189;-68
2022/05/07 12:34:17;;;;;;;4.83;3.70;;;9.50;99.90;;;;;;5095523;28;20203;-68
2022/05/07 12:36:45;;;;;;;5.43;3.90;;;9.50;99.90;;;;;;5095450;28;20183;-68
2022/05/07 12:39:12;;;;;;;6.60;5.10;;;9.60;99.90;;;;;;5095670;28;20171;-67
2022/05/07 12:41:44;;;;;;;7.53;4.37;;;9.50;99.90;;;;;;5095474;28;20172;-69
2022/05/07 12:44:11;;;;;;;7.77;4.57;;;9.40;99.90;;;;;;5095264;28;20177;-67
2022/05/07 12:46:40;;;;;;;7.73;4.43;;;9.40;99.90;;;;;;5095466;28;20532;-67
2022/05/07 12:49:08;;;;;;;6.37;4.27;;;9.30;99.90;;;;;;5095249;28;20208;-68
2022/05/07 12:51:36;;;;;;;8.40;4.67;;;9.20;99.90;;;;;;5095438;28;20244;-68
2022/05/07 12:54:03;;;;;;;6.93;4.70;;;9.20;99.90;;;;;;5094916;28;20179;-68
2022/05/07 12:56:31;;;;;;;5.63;4.50;;;9.20;99.90;;;;;;5095302;28;20224;-68
2022/05/07 12:58:58;;;;;;;6.63;4.33;;;9.10;99.90;;;;;;5095100;28;20168;-69
2022/05/07 13:01:26;;;;;;;10.13;4.40;;;9.10;99.90;;;;;;5094717;28;20179;-67
2022/05/07 13:03:53;;;;;;;13.20;4.43;;;9.10;99.90;;;;;;5094926;28;20195;-67
2022/05/07 13:06:20;;;;;;;7.13;4.13;;;9.10;99.90;;;;;;5095121;28;20171;-67
2022/05/07 13:08:48;;;;;;;9.03;4.70;;;9.00;99.90;;;;;;5094696;28;20218;-69
2022/05/07 13:11:15;;;;;;;7.73;4.00;;;8.90;99.90;;;;;;5093529;28;20644;-68
2022/05/07 13:13:44;;;;;;;4.90;4.30;;;8.90;99.90;;;;;;5094754;28;20181;-66
2022/05/07 13:16:11;;;;;;;6.77;3.87;;;8.80;99.90;;;;;;5094743;28;20176;-66
2022/05/07 13:18:39;;;;;;;6.20;4.40;;;8.80;99.90;;;;;;5094769;28;20317;-67
2022/05/07 13:21:07;;;;;;;7.43;3.93;;;8.80;99.90;;;;;;5094929;28;20183;-68
2022/05/07 13:23:34;;;;;;;10.33;4.47;;;8.70;99.90;;;;;;5093772;28;20186;-67
2022/05/07 13:26:02;;;;;;;4.77;3.47;;;8.80;99.90;;;;;;5093377;28;20190;-67
2022/05/07 13:28:29;;;;;;;6.27;3.97;;;8.80;99.90;;;;;;5093233;28;20180;-66
2022/05/07 13:30:58;;;;;;;7.30;3.90;;;8.80;99.90;;;;;;5092326;28;20233;-66
2022/05/07 13:33:27;;;;;;;6.10;3.93;;;8.70;99.90;;;;;;5093411;28;20182;-66
2022/05/07 13:35:56;;;;;;;6.53;3.63;;;8.70;99.90;;;;;;5094576;28;20175;-65
2022/05/07 13:38:24;;;;;;;5.33;3.73;;;8.60;99.90;;;;;;5094523;28;20542;-66
2022/05/07 13:40:51;;;;;;;8.13;3.93;;;8.70;99.90;;;;;;5093910;28;20204;-66